sensor_id;sensor_type;location;lat;lon;timestamp;temperature;humidity
29431;DHT22;16404;49.902;10.074;2023-11-21T00:01:13;12.80;65.60
29431;DHT22;16404;49.902;10.074;2023-11-21T00:03:57;12.80;65.60
29431;DHT22;16404;49.902;10.074;2023-11-21T00:06:42;12.80;65.70
29431;DHT22;16404;49.902;10.074;2023-11-21T00:09:26;12.70;65.90
29431;DHT22;16404;49.902;10.074;2023-11-21T00:12:11;12.70;66.10
29431;DHT22;16404;49.902;10.074;2023-11-21T00:14:58;12.80;65.90
29431;DHT22;16404;49.902;10.074;2023-11-21T00:17:43;12.80;65.50
29431;DHT22;16404;49.902;10.074;2023-11-21T00:20:27;12.80;65.80
29431;DHT22;16404;49.902;10.074;2023-11-21T00:23:12;12.80;66.10
29431;DHT22;16404;49.902;10.074;2023-11-21T00:25:56;12.80;66.20
29431;DHT22;16404;49.902;10.074;2023-11-21T00:28:41;12.80;66.30
29431;DHT22;16404;49.902;10.074;2023-11-21T00:31:26;12.80;66.50
29431;DHT22;16404;49.902;10.074;2023-11-21T00:34:12;12.80;66.60
29431;DHT22;16404;49.902;10.074;2023-11-21T00:36:56;12.80;66.50
29431;DHT22;16404;49.902;10.074;2023-11-21T00:39:40;12.90;66.30
29431;DHT22;16404;49.902;10.074;2023-11-21T00:42:25;12.90;66.20
29431;DHT22;16404;49.902;10.074;2023-11-21T00:45:10;12.80;66.30
29431;DHT22;16404;49.902;10.074;2023-11-21T00:47:55;12.80;66.40
29431;DHT22;16404;49.902;10.074;2023-11-21T00:50:39;12.90;66.30
29431;DHT22;16404;49.902;10.074;2023-11-21T00:53:24;12.90;66.10
29431;DHT22;16404;49.902;10.074;2023-11-21T00:56:09;12.90;66.30
29431;DHT22;16404;49.902;10.074;2023-11-21T00:58:53;12.90;66.50
29431;DHT22;16404;49.902;10.074;2023-11-21T01:01:38;12.90;66.60
29431;DHT22;16404;49.902;10.074;2023-11-21T01:04:23;12.90;66.70
29431;DHT22;16404;49.902;10.074;2023-11-21T01:07:08;12.90;66.70
29431;DHT22;16404;49.902;10.074;2023-11-21T01:09:53;12.90;66.90
29431;DHT22;16404;49.902;10.074;2023-11-21T01:12:38;12.90;67.00
29431;DHT22;16404;49.902;10.074;2023-11-21T01:15:23;12.90;67.20
29431;DHT22;16404;49.902;10.074;2023-11-21T01:18:10;12.90;67.20
29431;DHT22;16404;49.902;10.074;2023-11-21T01:20:54;12.90;67.20
29431;DHT22;16404;49.902;10.074;2023-11-21T01:23:39;12.90;67.20
29431;DHT22;16404;49.902;10.074;2023-11-21T01:26:24;13.00;67.10
29431;DHT22;16404;49.902;10.074;2023-11-21T01:29:08;13.00;66.90
29431;DHT22;16404;49.902;10.074;2023-11-21T01:31:53;13.00;66.80
29431;DHT22;16404;49.902;10.074;2023-11-21T01:34:38;13.00;66.90
29431;DHT22;16404;49.902;10.074;2023-11-21T01:37:22;13.00;66.90
29431;DHT22;16404;49.902;10.074;2023-11-21T01:40:07;13.00;66.70
29431;DHT22;16404;49.902;10.074;2023-11-21T01:42:54;13.00;66.70
29431;DHT22;16404;49.902;10.074;2023-11-21T01:45:39;13.00;66.70
29431;DHT22;16404;49.902;10.074;2023-11-21T01:48:24;13.00;66.70
29431;DHT22;16404;49.902;10.074;2023-11-21T01:51:09;13.00;66.70
29431;DHT22;16404;49.902;10.074;2023-11-21T01:53:54;13.00;66.60
29431;DHT22;16404;49.902;10.074;2023-11-21T01:56:38;13.00;66.60
29431;DHT22;16404;49.902;10.074;2023-11-21T01:59:23;13.00;66.60
29431;DHT22;16404;49.902;10.074;2023-11-21T02:02:08;13.10;66.40
29431;DHT22;16404;49.902;10.074;2023-11-21T02:04:55;13.00;66.10
29431;DHT22;16404;49.902;10.074;2023-11-21T02:07:40;13.00;66.20
29431;DHT22;16404;49.902;10.074;2023-11-21T02:10:25;13.00;66.40
29431;DHT22;16404;49.902;10.074;2023-11-21T02:13:10;13.00;66.40
29431;DHT22;16404;49.902;10.074;2023-11-21T02:15:54;13.10;66.30
29431;DHT22;16404;49.902;10.074;2023-11-21T02:18:40;13.10;66.00
29431;DHT22;16404;49.902;10.074;2023-11-21T02:21:26;13.00;66.30
29431;DHT22;16404;49.902;10.074;2023-11-21T02:24:10;13.00;66.40
29431;DHT22;16404;49.902;10.074;2023-11-21T02:26:55;13.00;66.60
29431;DHT22;16404;49.902;10.074;2023-11-21T02:29:40;13.00;66.60
29431;DHT22;16404;49.902;10.074;2023-11-21T02:32:25;13.00;66.60
29431;DHT22;16404;49.902;10.074;2023-11-21T02:35:10;13.00;66.50
29431;DHT22;16404;49.902;10.074;2023-11-21T02:37:56;13.00;66.50
29431;DHT22;16404;49.902;10.074;2023-11-21T02:40:40;13.00;67.20
29431;DHT22;16404;49.902;10.074;2023-11-21T02:43:25;13.00;66.50
29431;DHT22;16404;49.902;10.074;2023-11-21T02:46:09;13.00;66.60
29431;DHT22;16404;49.902;10.074;2023-11-21T02:48:54;13.00;66.60
29431;DHT22;16404;49.902;10.074;2023-11-21T02:51:39;13.00;66.50
29431;DHT22;16404;49.902;10.074;2023-11-21T02:54:24;13.00;66.50
29431;DHT22;16404;49.902;10.074;2023-11-21T02:57:08;13.00;66.40
29431;DHT22;16404;49.902;10.074;2023-11-21T02:59:53;13.00;66.40
29431;DHT22;16404;49.902;10.074;2023-11-21T03:02:37;13.00;66.50
29431;DHT22;16404;49.902;10.074;2023-11-21T03:05:23;13.00;66.50
29431;DHT22;16404;49.902;10.074;2023-11-21T03:08:08;13.00;66.40
29431;DHT22;16404;49.902;10.074;2023-11-21T03:10:52;13.00;66.40
29431;DHT22;16404;49.902;10.074;2023-11-21T03:13:37;13.00;66.40
29431;DHT22;16404;49.902;10.074;2023-11-21T03:16:21;13.00;66.40
29431;DHT22;16404;49.902;10.074;2023-11-21T03:19:06;13.00;66.40
29431;DHT22;16404;49.902;10.074;2023-11-21T03:21:52;12.90;66.20
29431;DHT22;16404;49.902;10.074;2023-11-21T03:24:37;12.90;66.20
29431;DHT22;16404;49.902;10.074;2023-11-21T03:27:22;12.90;66.20
29431;DHT22;16404;49.902;10.074;2023-11-21T03:30:08;12.90;66.20
29431;DHT22;16404;49.902;10.074;2023-11-21T03:32:53;12.90;66.20
29431;DHT22;16404;49.902;10.074;2023-11-21T03:35:38;12.90;66.10
29431;DHT22;16404;49.902;10.074;2023-11-21T03:38:22;12.90;66.10
29431;DHT22;16404;49.902;10.074;2023-11-21T03:41:08;12.90;66.10
29431;DHT22;16404;49.902;10.074;2023-11-21T03:43:55;12.90;66.10
29431;DHT22;16404;49.902;10.074;2023-11-21T03:46:40;13.00;66.90
29431;DHT22;16404;49.902;10.074;2023-11-21T03:49:24;12.90;66.10
29431;DHT22;16404;49.902;10.074;2023-11-21T03:52:09;12.90;66.70
29431;DHT22;16404;49.902;10.074;2023-11-21T03:54:54;12.90;66.00
29431;DHT22;16404;49.902;10.074;2023-11-21T03:57:39;12.90;66.00
29431;DHT22;16404;49.902;10.074;2023-11-21T04:00:24;12.90;66.10
29431;DHT22;16404;49.902;10.074;2023-11-21T04:03:10;12.90;66.10
29431;DHT22;16404;49.902;10.074;2023-11-21T04:05:55;12.90;66.20
29431;DHT22;16404;49.902;10.074;2023-11-21T04:08:40;12.90;66.20
29431;DHT22;16404;49.902;10.074;2023-11-21T04:11:24;12.90;66.10
29431;DHT22;16404;49.902;10.074;2023-11-21T04:14:09;12.80;66.00
29431;DHT22;16404;49.902;10.074;2023-11-21T04:16:54;12.80;66.20
29431;DHT22;16404;49.902;10.074;2023-11-21T04:19:38;12.80;66.20
29431;DHT22;16404;49.902;10.074;2023-11-21T04:22:23;12.80;66.20
29431;DHT22;16404;49.902;10.074;2023-11-21T04:25:11;12.80;66.10
29431;DHT22;16404;49.902;10.074;2023-11-21T04:27:56;12.80;66.10
29431;DHT22;16404;49.902;10.074;2023-11-21T04:30:40;12.70;66.00
29431;DHT22;16404;49.902;10.074;2023-11-21T04:33:25;12.70;65.90
29431;DHT22;16404;49.902;10.074;2023-11-21T04:36:10;12.70;65.90
29431;DHT22;16404;49.902;10.074;2023-11-21T04:38:54;12.70;65.70
29431;DHT22;16404;49.902;10.074;2023-11-21T04:41:39;12.70;65.60
29431;DHT22;16404;49.902;10.074;2023-11-21T04:44:23;12.70;65.60
29431;DHT22;16404;49.902;10.074;2023-11-21T04:47:08;12.70;66.20
29431;DHT22;16404;49.902;10.074;2023-11-21T04:49:52;12.70;65.50
29431;DHT22;16404;49.902;10.074;2023-11-21T04:52:37;12.60;65.50
29431;DHT22;16404;49.902;10.074;2023-11-21T04:55:22;12.60;65.50
29431;DHT22;16404;49.902;10.074;2023-11-21T04:58:07;12.60;65.50
29431;DHT22;16404;49.902;10.074;2023-11-21T05:00:52;12.70;65.60
29431;DHT22;16404;49.902;10.074;2023-11-21T05:03:37;12.60;65.50
29431;DHT22;16404;49.902;10.074;2023-11-21T05:06:22;12.50;65.60
29431;DHT22;16404;49.902;10.074;2023-11-21T05:09:08;12.50;65.70
29431;DHT22;16404;49.902;10.074;2023-11-21T05:11:56;12.50;65.90
29431;DHT22;16404;49.902;10.074;2023-11-21T05:14:40;12.50;66.00
29431;DHT22;16404;49.902;10.074;2023-11-21T05:17:26;12.50;66.10
29431;DHT22;16404;49.902;10.074;2023-11-21T05:20:14;12.50;66.90
29431;DHT22;16404;49.902;10.074;2023-11-21T05:23:01;12.40;66.20
29431;DHT22;16404;49.902;10.074;2023-11-21T05:25:46;12.50;66.30
29431;DHT22;16404;49.902;10.074;2023-11-21T05:28:31;12.50;67.10
29431;DHT22;16404;49.902;10.074;2023-11-21T05:31:15;12.50;66.40
29431;DHT22;16404;49.902;10.074;2023-11-21T05:34:00;12.50;66.40
29431;DHT22;16404;49.902;10.074;2023-11-21T05:36:44;12.50;67.20
29431;DHT22;16404;49.902;10.074;2023-11-21T05:39:32;12.50;66.60
29431;DHT22;16404;49.902;10.074;2023-11-21T05:42:16;12.50;66.50
29431;DHT22;16404;49.902;10.074;2023-11-21T05:45:01;12.50;66.60
29431;DHT22;16404;49.902;10.074;2023-11-21T05:47:55;12.60;66.50
29431;DHT22;16404;49.902;10.074;2023-11-21T05:50:40;12.60;66.40
29431;DHT22;16404;49.902;10.074;2023-11-21T05:53:25;12.60;66.50
29431;DHT22;16404;49.902;10.074;2023-11-21T05:56:09;12.60;66.50
29431;DHT22;16404;49.902;10.074;2023-11-21T05:58:53;12.60;67.20
29431;DHT22;16404;49.902;10.074;2023-11-21T06:01:38;12.60;66.50
29431;DHT22;16404;49.902;10.074;2023-11-21T06:04:23;12.60;66.50
29431;DHT22;16404;49.902;10.074;2023-11-21T06:07:08;12.50;66.50
29431;DHT22;16404;49.902;10.074;2023-11-21T06:09:52;12.60;66.60
29431;DHT22;16404;49.902;10.074;2023-11-21T06:12:38;12.60;66.60
29431;DHT22;16404;49.902;10.074;2023-11-21T06:15:24;12.60;66.50
29431;DHT22;16404;49.902;10.074;2023-11-21T06:18:08;12.50;66.50
29431;DHT22;16404;49.902;10.074;2023-11-21T06:20:54;12.50;66.60
29431;DHT22;16404;49.902;10.074;2023-11-21T06:23:38;12.50;66.70
29431;DHT22;16404;49.902;10.074;2023-11-21T06:26:23;12.50;66.70
29431;DHT22;16404;49.902;10.074;2023-11-21T06:29:08;12.50;66.90
29431;DHT22;16404;49.902;10.074;2023-11-21T06:31:52;12.50;66.90
29431;DHT22;16404;49.902;10.074;2023-11-21T06:34:39;12.60;67.00
29431;DHT22;16404;49.902;10.074;2023-11-21T06:37:23;12.60;67.00
29431;DHT22;16404;49.902;10.074;2023-11-21T06:40:09;12.60;67.00
29431;DHT22;16404;49.902;10.074;2023-11-21T06:42:54;12.60;67.00
29431;DHT22;16404;49.902;10.074;2023-11-21T06:45:38;12.60;67.10
29431;DHT22;16404;49.902;10.074;2023-11-21T06:48:23;12.60;67.10
29431;DHT22;16404;49.902;10.074;2023-11-21T06:51:08;12.60;67.10
29431;DHT22;16404;49.902;10.074;2023-11-21T06:53:52;12.60;67.10
29431;DHT22;16404;49.902;10.074;2023-11-21T06:56:37;12.70;67.00
29431;DHT22;16404;49.902;10.074;2023-11-21T06:59:23;12.70;67.00
29431;DHT22;16404;49.902;10.074;2023-11-21T07:02:08;12.70;67.10
29431;DHT22;16404;49.902;10.074;2023-11-21T07:04:53;12.70;67.20
29431;DHT22;16404;49.902;10.074;2023-11-21T07:07:38;12.70;67.10
29431;DHT22;16404;49.902;10.074;2023-11-21T07:10:22;12.80;67.10
29431;DHT22;16404;49.902;10.074;2023-11-21T07:13:07;12.80;67.00
29431;DHT22;16404;49.902;10.074;2023-11-21T07:15:59;12.80;67.20
29431;DHT22;16404;49.902;10.074;2023-11-21T07:18:44;12.80;67.30
29431;DHT22;16404;49.902;10.074;2023-11-21T07:21:28;12.80;67.40
29431;DHT22;16404;49.902;10.074;2023-11-21T07:24:14;12.80;67.50
29431;DHT22;16404;49.902;10.074;2023-11-21T07:26:58;12.80;67.50
29431;DHT22;16404;49.902;10.074;2023-11-21T07:29:43;12.80;67.50
29431;DHT22;16404;49.902;10.074;2023-11-21T07:32:27;12.90;67.60
29431;DHT22;16404;49.902;10.074;2023-11-21T07:35:12;12.90;68.40
29431;DHT22;16404;49.902;10.074;2023-11-21T07:37:56;12.90;67.70
29431;DHT22;16404;49.902;10.074;2023-11-21T07:40:41;13.00;67.90
29431;DHT22;16404;49.902;10.074;2023-11-21T07:43:25;13.00;67.80
29431;DHT22;16404;49.902;10.074;2023-11-21T07:46:11;13.00;67.80
29431;DHT22;16404;49.902;10.074;2023-11-21T07:48:56;13.10;67.80
29431;DHT22;16404;49.902;10.074;2023-11-21T07:51:42;13.00;67.80
29431;DHT22;16404;49.902;10.074;2023-11-21T07:54:26;13.00;67.90
29431;DHT22;16404;49.902;10.074;2023-11-21T07:57:11;13.10;67.90
29431;DHT22;16404;49.902;10.074;2023-11-21T07:59:57;13.10;67.90
29431;DHT22;16404;49.902;10.074;2023-11-21T08:02:42;13.10;68.00
29431;DHT22;16404;49.902;10.074;2023-11-21T08:05:26;13.10;68.00
29431;DHT22;16404;49.902;10.074;2023-11-21T08:08:11;13.20;68.20
29431;DHT22;16404;49.902;10.074;2023-11-21T08:10:55;13.20;68.20
29431;DHT22;16404;49.902;10.074;2023-11-21T08:13:42;13.20;68.30
29431;DHT22;16404;49.902;10.074;2023-11-21T08:16:27;13.20;68.40
29431;DHT22;16404;49.902;10.074;2023-11-21T08:19:12;13.30;68.50
29431;DHT22;16404;49.902;10.074;2023-11-21T08:21:57;13.30;68.40
29431;DHT22;16404;49.902;10.074;2023-11-21T08:24:44;13.30;68.40
29431;DHT22;16404;49.902;10.074;2023-11-21T08:27:28;13.30;68.50
29431;DHT22;16404;49.902;10.074;2023-11-21T08:30:13;13.40;68.60
29431;DHT22;16404;49.902;10.074;2023-11-21T08:33:01;13.40;68.50
29431;DHT22;16404;49.902;10.074;2023-11-21T08:35:47;13.40;68.40
29431;DHT22;16404;49.902;10.074;2023-11-21T08:38:31;13.40;68.40
29431;DHT22;16404;49.902;10.074;2023-11-21T08:41:16;13.40;68.50
29431;DHT22;16404;49.902;10.074;2023-11-21T08:44:01;13.40;69.20
29431;DHT22;16404;49.902;10.074;2023-11-21T08:46:45;13.40;68.50
29431;DHT22;16404;49.902;10.074;2023-11-21T08:49:30;13.40;68.60
29431;DHT22;16404;49.902;10.074;2023-11-21T08:52:15;13.40;68.60
29431;DHT22;16404;49.902;10.074;2023-11-21T08:55:00;13.40;68.50
29431;DHT22;16404;49.902;10.074;2023-11-21T08:57:51;13.50;68.50
29431;DHT22;16404;49.902;10.074;2023-11-21T09:00:36;13.40;68.40
29431;DHT22;16404;49.902;10.074;2023-11-21T09:03:22;13.40;68.50
29431;DHT22;16404;49.902;10.074;2023-11-21T09:06:07;13.50;68.50
29431;DHT22;16404;49.902;10.074;2023-11-21T09:08:53;13.50;68.50
29431;DHT22;16404;49.902;10.074;2023-11-21T09:11:38;13.60;68.50
29431;DHT22;16404;49.902;10.074;2023-11-21T09:14:23;13.60;68.40
29431;DHT22;16404;49.902;10.074;2023-11-21T09:17:09;13.80;68.30
29431;DHT22;16404;49.902;10.074;2023-11-21T09:19:57;13.80;68.00
29431;DHT22;16404;49.902;10.074;2023-11-21T09:22:42;13.80;68.10
29431;DHT22;16404;49.902;10.074;2023-11-21T09:25:28;13.90;68.20
29431;DHT22;16404;49.902;10.074;2023-11-21T09:28:13;13.90;68.20
29431;DHT22;16404;49.902;10.074;2023-11-21T09:30:58;13.90;68.20
29431;DHT22;16404;49.902;10.074;2023-11-21T09:33:45;14.00;68.30
29431;DHT22;16404;49.902;10.074;2023-11-21T09:36:32;14.00;68.30
29431;DHT22;16404;49.902;10.074;2023-11-21T09:39:18;14.10;68.00
29431;DHT22;16404;49.902;10.074;2023-11-21T09:42:38;14.10;67.90
29431;DHT22;16404;49.902;10.074;2023-11-21T09:45:28;14.10;68.10
29431;DHT22;16404;49.902;10.074;2023-11-21T09:48:14;14.20;67.90
29431;DHT22;16404;49.902;10.074;2023-11-21T09:51:00;14.30;67.80
29431;DHT22;16404;49.902;10.074;2023-11-21T09:53:50;14.30;67.80
29431;DHT22;16404;49.902;10.074;2023-11-21T09:56:37;14.40;67.80
29431;DHT22;16404;49.902;10.074;2023-11-21T09:59:22;14.50;67.70
29431;DHT22;16404;49.902;10.074;2023-11-21T10:02:07;14.50;67.70
29431;DHT22;16404;49.902;10.074;2023-11-21T10:04:56;14.60;67.70
29431;DHT22;16404;49.902;10.074;2023-11-21T10:07:41;14.60;67.60
29431;DHT22;16404;49.902;10.074;2023-11-21T10:10:27;14.80;67.40
29431;DHT22;16404;49.902;10.074;2023-11-21T10:13:14;14.80;67.00
29431;DHT22;16404;49.902;10.074;2023-11-21T10:16:01;14.80;67.00
29431;DHT22;16404;49.902;10.074;2023-11-21T10:18:52;14.80;67.10
29431;DHT22;16404;49.902;10.074;2023-11-21T10:21:39;14.80;67.00
29431;DHT22;16404;49.902;10.074;2023-11-21T10:24:23;14.80;67.00
29431;DHT22;16404;49.902;10.074;2023-11-21T10:27:08;14.80;67.00
29431;DHT22;16404;49.902;10.074;2023-11-21T10:29:52;14.90;67.00
29431;DHT22;16404;49.902;10.074;2023-11-21T10:32:38;14.90;66.90
29431;DHT22;16404;49.902;10.074;2023-11-21T10:35:24;14.90;66.60
29431;DHT22;16404;49.902;10.074;2023-11-21T10:38:09;15.00;66.60
29431;DHT22;16404;49.902;10.074;2023-11-21T10:40:54;15.00;66.60
29431;DHT22;16404;49.902;10.074;2023-11-21T10:43:39;15.00;66.60
29431;DHT22;16404;49.902;10.074;2023-11-21T10:46:24;15.00;66.30
29431;DHT22;16404;49.902;10.074;2023-11-21T10:49:10;15.10;66.00
29431;DHT22;16404;49.902;10.074;2023-11-21T10:51:56;15.10;65.70
29431;DHT22;16404;49.902;10.074;2023-11-21T10:54:40;15.10;65.80
29431;DHT22;16404;49.902;10.074;2023-11-21T10:57:25;15.10;65.80
29431;DHT22;16404;49.902;10.074;2023-11-21T11:00:11;15.20;66.10
29431;DHT22;16404;49.902;10.074;2023-11-21T11:02:57;15.20;66.10
29431;DHT22;16404;49.902;10.074;2023-11-21T11:05:46;15.20;65.70
29431;DHT22;16404;49.902;10.074;2023-11-21T11:08:35;15.30;65.60
29431;DHT22;16404;49.902;10.074;2023-11-21T11:11:21;15.30;65.80
29431;DHT22;16404;49.902;10.074;2023-11-21T11:14:08;15.40;65.60
29431;DHT22;16404;49.902;10.074;2023-11-21T11:16:54;15.40;65.60
29431;DHT22;16404;49.902;10.074;2023-11-21T11:19:41;15.40;65.50
29431;DHT22;16404;49.902;10.074;2023-11-21T11:32:16;15.50;64.70
29431;DHT22;16404;49.902;10.074;2023-11-21T11:35:19;15.50;64.30
29431;DHT22;16404;49.902;10.074;2023-11-21T11:38:06;15.50;63.80
29431;DHT22;16404;49.902;10.074;2023-11-21T11:40:54;15.60;63.70
29431;DHT22;16404;49.902;10.074;2023-11-21T11:43:39;15.50;63.30
29431;DHT22;16404;49.902;10.074;2023-11-21T11:46:45;15.60;63.20
29431;DHT22;16404;49.902;10.074;2023-11-21T11:49:30;15.50;62.70
29431;DHT22;16404;49.902;10.074;2023-11-21T11:52:33;15.50;62.70
29431;DHT22;16404;49.902;10.074;2023-11-21T11:55:22;15.40;62.50
29431;DHT22;16404;49.902;10.074;2023-11-21T11:58:07;15.40;62.60
29431;DHT22;16404;49.902;10.074;2023-11-21T12:00:52;15.30;62.50
29431;DHT22;16404;49.902;10.074;2023-11-21T12:03:38;15.30;62.60
29431;DHT22;16404;49.902;10.074;2023-11-21T12:06:35;15.20;62.60
29431;DHT22;16404;49.902;10.074;2023-11-21T12:09:21;15.10;62.70
29431;DHT22;16404;49.902;10.074;2023-11-21T12:12:06;15.00;63.50
29431;DHT22;16404;49.902;10.074;2023-11-21T12:14:52;15.00;62.80
29431;DHT22;16404;49.902;10.074;2023-11-21T12:17:37;14.90;62.80
29431;DHT22;16404;49.902;10.074;2023-11-21T12:20:22;14.90;62.80
29431;DHT22;16404;49.902;10.074;2023-11-21T12:23:07;14.80;62.80
29431;DHT22;16404;49.902;10.074;2023-11-21T12:25:53;14.80;62.80
29431;DHT22;16404;49.902;10.074;2023-11-21T12:28:37;14.80;62.80
29431;DHT22;16404;49.902;10.074;2023-11-21T12:31:23;14.80;63.00
29431;DHT22;16404;49.902;10.074;2023-11-21T12:34:07;14.80;63.10
29431;DHT22;16404;49.902;10.074;2023-11-21T12:36:55;14.90;63.20
29431;DHT22;16404;49.902;10.074;2023-11-21T12:39:40;14.90;63.20
29431;DHT22;16404;49.902;10.074;2023-11-21T12:42:25;14.90;63.30
29431;DHT22;16404;49.902;10.074;2023-11-21T12:48:05;15.00;63.20
29431;DHT22;16404;49.902;10.074;2023-11-21T12:50:55;15.00;63.10
29431;DHT22;16404;49.902;10.074;2023-11-21T12:53:40;15.00;62.70
29431;DHT22;16404;49.902;10.074;2023-11-21T12:56:25;15.10;62.70
29431;DHT22;16404;49.902;10.074;2023-11-21T12:59:09;15.10;62.60
29431;DHT22;16404;49.902;10.074;2023-11-21T13:01:58;15.20;62.60
29431;DHT22;16404;49.902;10.074;2023-11-21T13:04:52;15.20;62.60
29431;DHT22;16404;49.902;10.074;2023-11-21T13:07:43;15.20;62.40
29431;DHT22;16404;49.902;10.074;2023-11-21T13:10:32;15.20;62.20
29431;DHT22;16404;49.902;10.074;2023-11-21T13:13:16;15.20;62.10
29431;DHT22;16404;49.902;10.074;2023-11-21T13:16:02;15.30;62.10
29431;DHT22;16404;49.902;10.074;2023-11-21T13:18:50;15.30;62.10
29431;DHT22;16404;49.902;10.074;2023-11-21T13:21:34;15.40;62.30
29431;DHT22;16404;49.902;10.074;2023-11-21T13:24:19;15.40;62.20
29431;DHT22;16404;49.902;10.074;2023-11-21T13:27:04;15.50;62.20
29431;DHT22;16404;49.902;10.074;2023-11-21T13:29:48;15.50;61.90
29431;DHT22;16404;49.902;10.074;2023-11-21T13:32:34;15.50;61.70
29431;DHT22;16404;49.902;10.074;2023-11-21T13:35:19;15.50;61.50
29431;DHT22;16404;49.902;10.074;2023-11-21T13:38:15;15.50;61.50
29431;DHT22;16404;49.902;10.074;2023-11-21T13:41:06;15.60;61.50
29431;DHT22;16404;49.902;10.074;2023-11-21T13:43:52;15.60;61.30
29431;DHT22;16404;49.902;10.074;2023-11-21T13:46:43;15.60;61.10
29431;DHT22;16404;49.902;10.074;2023-11-21T13:49:28;15.60;61.10
29431;DHT22;16404;49.902;10.074;2023-11-21T13:52:15;15.70;61.20
29431;DHT22;16404;49.902;10.074;2023-11-21T13:55:01;15.60;60.80
29431;DHT22;16404;49.902;10.074;2023-11-21T13:57:50;15.60;61.20
29431;DHT22;16404;49.902;10.074;2023-11-21T14:00:36;15.50;61.00
29431;DHT22;16404;49.902;10.074;2023-11-21T14:03:29;15.40;61.20
29431;DHT22;16404;49.902;10.074;2023-11-21T14:06:23;15.40;61.30
29431;DHT22;16404;49.902;10.074;2023-11-21T14:09:22;15.30;61.10
29431;DHT22;16404;49.902;10.074;2023-11-21T14:12:07;15.20;60.90
29431;DHT22;16404;49.902;10.074;2023-11-21T14:14:52;15.20;61.00
29431;DHT22;16404;49.902;10.074;2023-11-21T14:17:36;15.20;61.10
29431;DHT22;16404;49.902;10.074;2023-11-21T14:20:23;15.10;60.90
29431;DHT22;16404;49.902;10.074;2023-11-21T14:23:08;15.10;60.60
29431;DHT22;16404;49.902;10.074;2023-11-21T14:25:54;15.10;60.40
29431;DHT22;16404;49.902;10.074;2023-11-21T14:28:39;15.00;60.50
29431;DHT22;16404;49.902;10.074;2023-11-21T14:31:23;15.00;60.70
29431;DHT22;16404;49.902;10.074;2023-11-21T14:34:09;15.00;60.40
29431;DHT22;16404;49.902;10.074;2023-11-21T14:36:55;15.00;60.30
29431;DHT22;16404;49.902;10.074;2023-11-21T14:39:39;15.00;60.30
29431;DHT22;16404;49.902;10.074;2023-11-21T14:42:28;15.00;60.50
29431;DHT22;16404;49.902;10.074;2023-11-21T14:45:14;14.90;60.70
29431;DHT22;16404;49.902;10.074;2023-11-21T14:48:03;14.80;60.90
29431;DHT22;16404;49.902;10.074;2023-11-21T14:50:52;14.80;61.00
29431;DHT22;16404;49.902;10.074;2023-11-21T14:53:45;14.70;61.10
29431;DHT22;16404;49.902;10.074;2023-11-21T14:56:39;14.70;61.20
29431;DHT22;16404;49.902;10.074;2023-11-21T14:59:26;14.70;61.10
29431;DHT22;16404;49.902;10.074;2023-11-21T15:02:11;14.80;61.10
29431;DHT22;16404;49.902;10.074;2023-11-21T15:05:05;14.70;60.90
29431;DHT22;16404;49.902;10.074;2023-11-21T15:07:50;14.70;60.80
29431;DHT22;16404;49.902;10.074;2023-11-21T15:10:41;14.60;60.70
29431;DHT22;16404;49.902;10.074;2023-11-21T15:13:33;14.60;60.90
29431;DHT22;16404;49.902;10.074;2023-11-21T15:16:18;14.50;60.90
29431;DHT22;16404;49.902;10.074;2023-11-21T15:19:03;14.50;60.90
29431;DHT22;16404;49.902;10.074;2023-11-21T15:21:49;14.50;60.80
29431;DHT22;16404;49.902;10.074;2023-11-21T15:24:34;14.50;60.50
29431;DHT22;16404;49.902;10.074;2023-11-21T15:27:18;14.50;60.40
29431;DHT22;16404;49.902;10.074;2023-11-21T15:30:05;14.40;60.60
29431;DHT22;16404;49.902;10.074;2023-11-21T15:32:49;14.30;60.70
29431;DHT22;16404;49.902;10.074;2023-11-21T15:35:33;14.30;60.80
29431;DHT22;16404;49.902;10.074;2023-11-21T15:38:22;14.20;60.80
29431;DHT22;16404;49.902;10.074;2023-11-21T15:41:06;14.20;61.00
29431;DHT22;16404;49.902;10.074;2023-11-21T15:43:54;14.20;61.10
29431;DHT22;16404;49.902;10.074;2023-11-21T15:46:38;14.10;61.20
29431;DHT22;16404;49.902;10.074;2023-11-21T15:49:25;14.10;61.30
29431;DHT22;16404;49.902;10.074;2023-11-21T15:52:11;14.10;61.30
29431;DHT22;16404;49.902;10.074;2023-11-21T15:54:56;14.10;61.30
29431;DHT22;16404;49.902;10.074;2023-11-21T15:57:40;14.10;61.30
29431;DHT22;16404;49.902;10.074;2023-11-21T16:00:25;14.00;61.30
29431;DHT22;16404;49.902;10.074;2023-11-21T16:03:09;13.90;61.30
29431;DHT22;16404;49.902;10.074;2023-11-21T16:05:55;13.90;61.30
29431;DHT22;16404;49.902;10.074;2023-11-21T16:08:40;13.90;61.30
29431;DHT22;16404;49.902;10.074;2023-11-21T16:11:24;13.90;61.30
29431;DHT22;16404;49.902;10.074;2023-11-21T16:14:09;13.90;61.30
29431;DHT22;16404;49.902;10.074;2023-11-21T16:16:54;13.80;61.20
29431;DHT22;16404;49.902;10.074;2023-11-21T16:19:39;13.80;61.20
29431;DHT22;16404;49.902;10.074;2023-11-21T16:22:23;13.80;61.30
29431;DHT22;16404;49.902;10.074;2023-11-21T16:25:09;13.70;61.40
29431;DHT22;16404;49.902;10.074;2023-11-21T16:27:57;13.60;61.40
29431;DHT22;16404;49.902;10.074;2023-11-21T16:30:48;13.60;61.40
29431;DHT22;16404;49.902;10.074;2023-11-21T16:33:34;13.60;61.50
29431;DHT22;16404;49.902;10.074;2023-11-21T16:36:19;13.50;61.60
29431;DHT22;16404;49.902;10.074;2023-11-21T16:39:03;13.50;61.60
29431;DHT22;16404;49.902;10.074;2023-11-21T16:41:48;13.60;61.70
29431;DHT22;16404;49.902;10.074;2023-11-21T16:44:33;13.50;61.70
29431;DHT22;16404;49.902;10.074;2023-11-21T16:47:17;13.50;61.90
29431;DHT22;16404;49.902;10.074;2023-11-21T16:50:02;13.50;62.00
29431;DHT22;16404;49.902;10.074;2023-11-21T16:52:47;13.40;62.10
29431;DHT22;16404;49.902;10.074;2023-11-21T16:55:32;13.40;62.20
29431;DHT22;16404;49.902;10.074;2023-11-21T16:58:16;13.40;62.20
29431;DHT22;16404;49.902;10.074;2023-11-21T17:01:01;13.30;62.30
29431;DHT22;16404;49.902;10.074;2023-11-21T17:03:47;13.30;62.40
29431;DHT22;16404;49.902;10.074;2023-11-21T17:06:33;13.20;62.50
29431;DHT22;16404;49.902;10.074;2023-11-21T17:09:17;13.20;62.70
29431;DHT22;16404;49.902;10.074;2023-11-21T17:12:02;13.20;62.80
29431;DHT22;16404;49.902;10.074;2023-11-21T17:14:49;13.20;62.70
29431;DHT22;16404;49.902;10.074;2023-11-21T17:17:34;13.10;63.30
29431;DHT22;16404;49.902;10.074;2023-11-21T17:20:19;13.20;62.70
29431;DHT22;16404;49.902;10.074;2023-11-21T17:23:04;13.10;62.50